createdAt,value
2022-09-28T00:02:55.877Z,7.03
2022-09-28T00:05:28.043Z,6.28
2022-09-28T00:07:59.206Z,6.32
2022-09-28T00:10:35.449Z,8.82
2022-09-28T00:13:03.982Z,4.93
2022-09-28T00:15:32.172Z,8.55
2022-09-28T00:18:00.392Z,6.60
2022-09-28T00:20:28.667Z,8.90
2022-09-28T00:22:56.879Z,9.50
2022-09-28T00:25:29.149Z,6.45
2022-09-28T00:27:58.157Z,8.20
2022-09-28T00:30:26.492Z,6.78
2022-09-28T00:33:03.793Z,8.68
2022-09-28T00:35:59.094Z,5.88
2022-09-28T00:41:54.704Z,5.10
2022-09-28T12:36:46.280Z,4.18
2022-09-28T12:39:56.934Z,6.22
2022-09-28T12:43:11.246Z,4.95
2022-09-28T12:46:20.376Z,7.07
2022-09-28T12:52:43.589Z,5.07
2022-09-28T12:55:39.666Z,4.25
2022-09-28T13:05:38.535Z,4.50
2022-09-28T13:12:41.266Z,4.85
2022-09-28T13:38:43.296Z,5.57
2022-09-28T14:28:43.764Z,4.03
2022-09-28T14:31:48.981Z,4.75
2022-09-28T14:38:39.164Z,5.93
2022-09-28T14:41:36.215Z,5.00
2022-09-28T14:44:34.341Z,4.82
2022-09-28T15:08:00.891Z,5.70
2022-09-28T15:54:56.520Z,5.63
2022-09-28T15:58:01.803Z,8.23
2022-09-28T16:04:08.298Z,6.65
2022-09-28T16:06:36.580Z,5.70
2022-09-28T16:10:01.397Z,5.05
2022-09-28T16:13:02.476Z,7.53
2022-09-28T16:19:31.281Z,3.13
2022-09-28T16:22:11.155Z,4.60
2022-09-28T16:35:30.133Z,5.50
2022-09-28T16:38:26.489Z,7.80
2022-09-28T16:44:27.330Z,4.28
2022-09-28T16:49:27.287Z,4.70
2022-09-28T16:55:39.908Z,9.45
2022-09-28T16:58:26.139Z,4.80
2022-09-28T17:01:23.167Z,4.47
2022-09-28T17:04:24.188Z,5.15
2022-09-28T17:07:21.862Z,5.13
2022-09-28T17:10:22.158Z,7.18
2022-09-28T17:14:25.510Z,4.87
2022-09-28T17:16:42.643Z,3.97
2022-09-28T17:22:22.974Z,3.17
2022-09-28T17:24:51.438Z,6.43
2022-09-28T17:27:22.784Z,4.85
2022-09-28T17:29:52.312Z,3.67
2022-09-28T17:32:23.714Z,4.35
2022-09-28T17:35:06.585Z,4.72
2022-09-28T17:37:52.779Z,4.07
2022-09-28T17:40:23.962Z,4.10
2022-09-28T17:46:23.057Z,3.10
2022-09-28T17:48:51.596Z,4.47
2022-09-28T17:51:19.945Z,4.60
2022-09-28T17:53:51.124Z,3.28
2022-09-28T17:56:22.014Z,2.47
2022-09-28T18:01:27.511Z,4.43
2022-09-28T18:03:55.767Z,3.47
2022-09-28T18:06:26.730Z,3.88
2022-09-28T18:09:18.916Z,2.63
2022-09-28T18:12:19.693Z,3.30
2022-09-28T18:14:52.879Z,3.00
2022-09-28T18:17:21.317Z,4.30
2022-09-28T18:19:49.651Z,2.78
2022-09-28T18:22:20.669Z,3.70
2022-09-28T18:24:49.082Z,3.17
2022-09-28T18:27:20.137Z,4.78
2022-09-28T18:29:48.416Z,1.88
2022-09-28T18:32:22.305Z,3.33
2022-09-28T18:34:50.861Z,3.08
2022-09-28T18:37:22.251Z,1.38
2022-09-28T18:39:51.807Z,2.67
2022-09-28T18:42:21.492Z,2.60
2022-09-28T18:47:51.051Z,4.95
2022-09-28T18:50:50.064Z,2.53
2022-09-28T18:53:53.997Z,2.05
2022-09-28T18:56:24.642Z,3.08
2022-09-28T18:58:56.045Z,3.17
2022-09-28T19:01:51.171Z,3.30
2022-09-28T19:04:49.860Z,6.78
2022-09-28T19:07:51.658Z,2.50
2022-09-28T19:10:52.161Z,1.80
2022-09-28T19:13:48.381Z,2.10
2022-09-28T19:16:48.108Z,2.95
2022-09-28T19:23:51.945Z,3.38
2022-09-28T19:29:51.520Z,1.33
2022-09-28T19:33:53.032Z,2.40
2022-09-28T19:36:48.867Z,3.75
2022-09-28T19:39:17.626Z,4.38
2022-09-28T19:41:53.401Z,4.53
2022-09-28T19:51:15.415Z,2.20
2022-09-28T20:03:16.565Z,2.92
2022-09-28T20:05:47.193Z,2.58
2022-09-28T20:11:17.907Z,2.53
2022-09-28T20:13:46.635Z,3.95
2022-09-28T20:16:55.764Z,2.40
2022-09-28T20:19:17.266Z,2.45
2022-09-28T20:21:45.710Z,2.42
2022-09-28T20:24:14.152Z,1.80
2022-09-28T20:26:46.614Z,2.45
2022-09-28T20:29:15.250Z,2.17
2022-09-28T20:31:46.575Z,4.22
2022-09-28T20:34:16.974Z,3.35
2022-09-28T20:37:18.244Z,1.85
2022-09-28T20:42:47.184Z,1.40
2022-09-28T20:45:15.769Z,1.65
2022-09-28T20:47:44.094Z,2.60
2022-09-28T20:50:15.497Z,1.85
2022-09-28T20:52:43.770Z,2.15
2022-09-28T20:55:14.874Z,2.10
2022-09-28T20:57:47.132Z,3.83
2022-09-28T21:00:16.224Z,2.92
2022-09-28T21:03:54.424Z,2.83
2022-09-28T21:06:42.523Z,2.63
2022-09-28T21:16:13.546Z,2.28
2022-09-28T21:22:15.387Z,3.70
2022-09-28T21:25:13.206Z,1.95
2022-09-28T21:28:14.663Z,2.03
2022-09-28T21:31:12.483Z,1.98
2022-09-28T21:36:54.040Z,2.55
2022-09-28T21:39:30.357Z,2.20
2022-09-28T21:46:15.597Z,2.95
2022-09-28T21:49:11.530Z,1.60
2022-09-28T21:51:39.779Z,1.10
2022-09-28T21:54:14.694Z,1.90
2022-09-28T22:02:11.820Z,1.73
2022-09-28T22:04:42.684Z,4.70
2022-09-28T22:09:41.571Z,2.72
2022-09-28T22:12:12.745Z,2.17
2022-09-28T22:14:41.105Z,1.85
2022-09-28T22:17:15.341Z,2.33
2022-09-28T22:20:08.419Z,2.00
2022-09-28T22:22:42.832Z,1.85
2022-09-28T22:25:11.117Z,2.90
2022-09-28T22:27:42.531Z,2.58
2022-09-28T22:30:11.224Z,1.33
2022-09-28T22:33:15.853Z,0.55
2022-09-28T22:35:35.184Z,1.88
2022-09-28T22:38:14.801Z,0.77
2022-09-28T22:41:16.917Z,1.20
2022-09-28T22:43:51.424Z,2.00
2022-09-28T23:53:41.377Z,3.83
2022-09-28T23:56:26.898Z,2.80
2022-09-28T23:59:50.947Z,2.63
